Time;durP1;ratioP1;P1;durP2;ratioP2;P2;SDS_P1;SDS_P2;PMS_P1;PMS_P2;Temp;Humidity;BMP_temperature;BMP_pressure;BME280_temperature;BME280_humidity;BME280_pressure;Samples;Min_cycle;Max_cycle;Signal;HPM_P1;HPM_P2
2021/10/25 00:00:51;;;;;;;17.02;7.40;;;;;;;3.42;100.00;98904.50;4988471;28;20034;-94
2021/10/25 00:03:18;;;;;;;15.88;8.65;;;;;;;3.51;100.00;98907.03;4987855;28;20528;-93
2021/10/25 00:05:43;;;;;;;17.85;8.82;;;;;;;3.51;100.00;98910.56;4971335;28;20030;-94
2021/10/25 00:08:10;;;;;;;21.88;9.55;;;;;;;3.34;100.00;98893.13;4985832;28;20032;-89
2021/10/25 00:10:36;;;;;;;20.85;10.85;;;;;;;3.27;100.00;98900.25;4988019;28;20052;-94
2021/10/25 00:13:02;;;;;;;20.73;11.07;;;;;;;3.28;100.00;98899.38;4987998;28;20029;-94
2021/10/25 00:15:27;;;;;;;20.90;11.07;;;;;;;3.32;100.00;98913.44;4988320;28;20068;-94
2021/10/25 00:17:53;;;;;;;22.90;10.07;;;;;;;3.23;100.00;98914.44;4988015;28;20033;-94
2021/10/25 00:20:19;;;;;;;22.15;9.70;;;;;;;3.12;100.00;98880.16;4987103;28;20473;-96
2021/10/25 00:22:45;;;;;;;20.13;9.55;;;;;;;3.23;100.00;98909.16;4986634;28;20124;-93
2021/10/25 00:25:11;;;;;;;21.40;9.52;;;;;;;3.13;100.00;98896.91;4984899;28;20123;-95
2021/10/25 00:27:36;;;;;;;17.02;9.15;;;;;;;3.14;100.00;98891.59;4985625;28;20026;-94
2021/10/25 00:30:04;;;;;;;16.80;9.38;;;;;;;3.13;100.00;98892.50;4986599;28;20050;-94
2021/10/25 00:32:29;;;;;;;14.10;8.10;;;;;;;3.06;100.00;98895.22;4986504;28;20485;-95
2021/10/25 00:34:55;;;;;;;15.10;7.95;;;;;;;2.99;100.00;98896.16;4986269;28;20093;-95
2021/10/25 00:37:21;;;;;;;17.95;8.38;;;;;;;2.98;100.00;98902.34;4985324;28;20129;-95
2021/10/25 00:39:46;;;;;;;20.05;7.22;;;;;;;2.96;100.00;98901.47;4985240;28;20032;-95
2021/10/25 00:42:12;;;;;;;14.60;6.95;;;;;;;3.02;100.00;98914.63;4985317;28;20052;-95
2021/10/25 00:44:37;;;;;;;13.23;7.07;;;;;;;3.00;100.00;98890.00;4986192;28;20493;-93
2021/10/25 00:47:03;;;;;;;13.73;6.85;;;;;;;2.88;100.00;98890.13;4986303;28;20080;-93
2021/10/25 00:49:29;;;;;;;13.70;7.07;;;;;;;2.88;100.00;98900.69;4986312;28;20097;-94
2021/10/25 00:51:55;;;;;;;21.15;9.50;;;;;;;3.00;100.00;98913.78;4987403;28;20026;-93
2021/10/25 00:54:21;;;;;;;21.40;10.73;;;;;;;2.91;100.00;98916.50;4970557;28;20038;-91
2021/10/25 00:56:48;;;;;;;11.50;7.40;;;;;;;2.77;100.00;98899.94;4968751;28;20032;-94
2021/10/25 00:59:14;;;;;;;16.70;8.02;;;;;;;2.73;100.00;98907.88;4986787;28;20058;-93
2021/10/25 01:01:41;;;;;;;15.75;8.38;;;;;;;2.82;100.00;98912.19;4986449;28;20033;-93
2021/10/25 01:04:07;;;;;;;17.17;8.63;;;;;;;2.72;100.00;98892.91;4985166;28;20033;-92
2021/10/25 01:06:33;;;;;;;17.08;8.68;;;;;;;2.74;100.00;98901.69;4985730;28;20089;-92
2021/10/25 01:08:59;;;;;;;20.30;9.05;;;;;;;2.77;100.00;98894.66;4986075;28;20537;-94
2021/10/25 01:11:26;;;;;;;20.88;9.73;;;;;;;2.77;100.00;98892.00;5001166;28;20030;-93
2021/10/25 01:13:53;;;;;;;17.45;10.10;;;;;;;2.70;100.00;98876.22;4984554;28;20038;-93
2021/10/25 01:16:19;;;;;;;26.85;12.68;;;;;;;2.78;100.00;98894.63;4984819;28;20113;-93
2021/10/25 01:18:47;;;;;;;26.67;12.77;;;;;;;2.65;100.00;98875.34;4987887;28;20068;-93
2021/10/25 01:21:13;;;;;;;26.25;11.93;;;;;;;2.66;100.00;98890.31;4984344;28;20025;-93
2021/10/25 01:23:39;;;;;;;17.60;9.38;;;;;;;2.74;100.00;98904.31;4984925;28;20006;-94
2021/10/25 01:26:05;;;;;;;20.25;9.02;;;;;;;2.68;100.00;98888.53;5001270;28;20045;-93
2021/10/25 01:28:31;;;;;;;15.73;8.23;;;;;;;2.82;100.00;98909.56;4983681;28;20026;-92
2021/10/25 01:30:57;;;;;;;15.90;8.80;;;;;;;2.70;100.00;98888.53;4987028;28;20054;-94
2021/10/25 01:33:23;;;;;;;13.80;7.93;;;;;;;2.81;100.00;98904.28;4986436;28;20029;-94
2021/10/25 01:35:49;;;;;;;17.85;9.35;;;;;;;2.67;100.00;98881.53;4985517;28;20109;-92
2021/10/25 01:38:15;;;;;;;14.55;7.80;;;;;;;2.71;100.00;98883.22;4984680;28;20064;-94
2021/10/25 01:40:40;;;;;;;14.98;8.15;;;;;;;2.82;100.00;98900.75;4985163;28;20093;-93
2021/10/25 01:43:07;;;;;;;14.32;6.82;;;;;;;2.70;100.00;98884.13;4985410;28;20056;-92
2021/10/25 01:45:33;;;;;;;12.30;6.88;;;;;;;2.75;100.00;98902.56;4986431;28;20114;-94
2021/10/25 01:51:20;;;;;;;14.15;7.20;;;;;;;2.58;100.00;98876.31;5022700;28;20036;-93
2021/10/25 01:53:46;;;;;;;16.20;7.20;;;;;;;2.65;100.00;98883.28;4988236;28;20549;-92
2021/10/25 01:56:13;;;;;;;17.70;8.18;;;;;;;2.60;100.00;98874.53;4988251;28;20038;-92
2021/10/25 01:58:38;;;;;;;10.98;6.90;;;;;;;2.68;100.00;98904.38;4988747;28;20030;-93
2021/10/25 02:01:05;;;;;;;11.30;6.93;;;;;;;2.59;100.00;98885.09;4988391;28;20116;-93
2021/10/25 02:03:34;;;;;;;15.77;8.20;;;;;;;2.61;100.00;98886.88;5006054;28;20116;-95
2021/10/25 02:06:00;;;;;;;14.52;8.40;;;;;;;2.51;100.00;98861.41;4990904;28;20083;-94
2021/10/25 02:11:47;;;;;;;16.00;7.55;;;;;;;2.47;100.00;98883.44;5024090;28;20044;-94
2021/10/25 02:14:14;;;;;;;12.25;7.22;;;;;;;2.41;100.00;98872.94;4990593;28;20057;-94
2021/10/25 02:16:40;;;;;;;12.68;6.97;;;;;;;2.39;100.00;98858.88;4991245;28;20030;-93
2021/10/25 02:19:05;;;;;;;15.95;8.85;;;;;;;2.54;100.00;98890.44;5006712;28;20064;-94
2021/10/25 02:21:31;;;;;;;13.05;7.30;;;;;;;2.42;100.00;98879.97;4990446;28;20029;-94
2021/10/25 02:23:57;;;;;;;19.70;6.80;;;;;;;2.42;100.00;98890.53;4990286;28;20489;-93
2021/10/25 02:26:23;;;;;;;12.82;6.68;;;;;;;2.16;100.00;98861.69;4988853;28;20037;-94
2021/10/25 02:28:48;;;;;;;17.42;6.72;;;;;;;2.23;100.00;98867.81;4987033;28;20100;-94
2021/10/25 02:31:14;;;;;;;13.52;7.47;;;;;;;2.28;100.00;98879.19;4987602;28;20064;-93
2021/10/25 02:33:40;;;;;;;12.65;7.03;;;;;;;2.35;100.00;98895.88;4989087;28;20482;-93
2021/10/25 02:36:07;;;;;;;14.05;6.75;;;;;;;2.07;100.00;98855.63;4988899;28;20160;-94
2021/10/25 02:38:37;;;;;;;15.60;7.70;;;;;;;2.28;100.00;98889.75;4990139;28;20049;-94
2021/10/25 02:41:06;;;;;;;13.45;7.80;;;;;;;2.13;100.00;98871.41;4991328;28;20489;-94
2021/10/25 02:43:33;;;;;;;17.98;8.40;;;;;;;2.16;100.00;98884.56;4991487;28;20025;-94
2021/10/25 02:45:59;;;;;;;17.27;9.02;;;;;;;2.15;100.00;98878.41;5006573;28;20026;-93
2021/10/25 02:48:25;;;;;;;17.58;9.02;;;;;;;2.22;100.00;98889.81;4994852;28;20029;-94
2021/10/25 02:50:52;;;;;;;44.22;16.38;;;;;;;2.21;100.00;98885.44;4994335;28;20014;-93
2021/10/25 02:53:18;;;;;;;36.28;15.10;;;;;;;2.16;100.00;98884.56;4992224;28;20053;-94
2021/10/25 02:55:44;;;;;;;34.10;13.55;;;;;;;2.19;100.00;98897.75;4992407;28;20036;-94
2021/10/25 02:58:10;;;;;;;25.25;10.95;;;;;;;2.13;100.00;98881.94;4977396;28;20034;-93
2021/10/25 03:00:35;;;;;;;41.50;14.90;;;;;;;2.10;100.00;98868.78;4989267;28;20072;-93
2021/10/25 03:03:02;;;;;;;27.13;10.13;;;;;;;1.99;100.00;98868.00;4989660;28;20124;-94
2021/10/25 03:05:28;;;;;;;18.08;8.73;;;;;;;2.01;100.00;98876.75;4988860;28;20026;-94
2021/10/25 03:07:54;;;;;;;20.63;9.88;;;;;;;2.00;100.00;98889.06;4989541;28;20116;-93
2021/10/25 03:10:19;;;;;;;17.35;8.70;;;;;;;1.84;100.00;98868.97;4989266;28;20064;-93
2021/10/25 03:12:46;;;;;;;18.27;8.77;;;;;;;1.85;100.00;98880.38;4989984;28;20037;-93
2021/10/25 03:15:12;;;;;;;16.15;8.85;;;;;;;1.96;100.00;98890.00;4989277;28;20108;-92
2021/10/25 03:17:38;;;;;;;25.50;10.20;;;;;;;1.89;100.00;98885.63;4988996;28;20240;-93
2021/10/25 03:20:05;;;;;;;20.30;9.77;;;;;;;2.01;100.00;98888.19;4986991;28;20032;-93
2021/10/25 03:22:30;;;;;;;21.88;9.18;;;;;;;1.93;100.00;98875.94;4973459;28;20018;-94
2021/10/25 03:24:58;;;;;;;19.50;9.68;;;;;;;1.94;100.00;98883.00;4990495;28;20040;-93
2021/10/25 03:27:24;;;;;;;17.42;10.57;;;;;;;1.73;100.00;98869.91;4972124;28;20485;-91
2021/10/25 03:29:50;;;;;;;25.50;11.32;;;;;;;1.66;100.00;98866.44;4988241;28;20053;-92
2021/10/25 03:32:16;;;;;;;26.70;10.90;;;;;;;1.63;100.00;98884.94;4987558;28;20481;-74
2021/10/25 03:34:42;;;;;;;24.02;12.18;;;;;;;1.65;100.00;98883.16;4999167;28;20026;-92
2021/10/25 03:37:07;;;;;;;26.58;12.70;;;;;;;1.69;100.00;98878.72;4987336;28;20080;-93
2021/10/25 03:39:36;;;;;;;33.65;13.27;;;;;;;1.73;100.00;98875.19;4987163;28;20026;-92
2021/10/25 03:42:06;;;;;;;24.02;12.25;;;;;;;1.79;100.00;98883.06;4987263;28;20125;-94
2021/10/25 03:44:40;;;;;;;31.25;13.65;;;;;;;1.69;100.00;98871.72;4987266;28;20060;-94
2021/10/25 03:47:12;;;;;;;30.05;14.85;;;;;;;1.63;100.00;98855.91;4988651;28;20040;-92
2021/10/25 03:49:47;;;;;;;24.23;12.52;;;;;;;1.76;100.00;98885.72;4991437;28;20034;-94
2021/10/25 03:52:40;;;;;;;34.08;14.38;;;;;;;1.65;100.00;98869.97;4990225;28;20034;-93
2021/10/25 03:58:03;;;;;;;31.23;14.50;;;;;;;1.61;100.00;98868.22;5006018;28;20428;-93
2021/10/25 04:00:53;;;;;;;36.08;15.00;;;;;;;1.59;100.00;98862.09;5007164;28;20022;-92
2021/10/25 04:34:02;;;;;;;30.05;13.85;;;;;;;1.07;100.00;98822.81;4939808;29;20079;-88
2021/10/25 04:36:37;;;;;;;25.92;12.82;;;;;;;1.26;100.00;98863.09;4925832;29;20567;-89
2021/10/25 04:39:07;;;;;;;27.10;12.70;;;;;;;1.33;100.00;98867.47;4946450;28;20066;-90
2021/10/25 04:41:35;;;;;;;25.70;12.07;;;;;;;1.39;100.00;98870.06;4982470;28;20037;-91
2021/10/25 04:47:23;;;;;;;50.90;16.52;;;;;;;1.24;100.00;98832.38;5007117;28;20065;-77
2021/10/25 05:39:14;;;;;;;87.25;39.60;;;;;;;3.67;100.00;98928.00;4835234;29;20075;-92
2021/10/25 05:41:43;;;;;;;93.55;41.72;;;;;;;3.76;100.00;98896.13;4847406;29;20053;-88
2021/10/25 05:44:56;;;;;;;79.07;40.60;;;;;;;3.94;100.00;98872.97;4876165;29;20119;-90
2021/10/25 05:47:30;;;;;;;72.65;36.13;;;;;;;5.69;89.64;98875.06;5013358;28;20489;-89
2021/10/25 05:50:20;;;;;;;98.75;47.42;;;;;;;6.95;78.51;98886.25;4961356;28;20035;-89
2021/10/25 05:52:54;;;;;;;82.82;36.95;;;;;;;8.30;69.70;98894.88;4978944;28;20482;-91
2021/10/25 05:59:42;;;;;;;73.90;35.13;;;;;;;8.67;64.23;98890.94;5001397;28;20105;-92
2021/10/25 06:19:38;;;;;;;43.03;21.60;;;;;;;11.14;55.10;98884.22;4940066;28;20477;-91
2021/10/25 06:33:13;;;;;;;48.55;21.80;;;;;;;12.91;49.62;98861.66;4758680;30;20039;-92
2021/10/25 06:42:48;;;;;;;44.42;20.75;;;;;;;14.47;47.46;98866.72;4830919;29;20581;-91
2021/10/25 06:45:33;;;;;;;38.03;19.10;;;;;;;14.73;45.93;98860.75;4831451;29;20030;-90
2021/10/25 06:55:48;;;;;;;40.40;23.15;;;;;;;15.97;44.69;98935.97;4963233;28;20078;-91
2021/10/25 07:01:55;;;;;;;35.80;19.98;;;;;;;14.25;48.42;98915.47;4877753;29;20591;-91
2021/10/25 07:04:29;;;;;;;36.63;19.05;;;;;;;14.83;47.18;98918.50;4973065;28;20124;-91
2021/10/25 07:06:56;;;;;;;46.53;21.10;;;;;;;15.81;44.39;98898.28;4968939;28;20429;-91
2021/10/25 07:09:22;;;;;;;40.17;19.85;;;;;;;15.15;46.18;98871.69;4982004;28;20485;-91
2021/10/25 07:11:51;;;;;;;45.60;19.20;;;;;;;16.39;44.23;98911.72;4964115;28;20026;-89
2021/10/25 07:14:26;;;;;;;34.30;18.20;;;;;;;16.49;44.01;98904.75;4971125;28;20030;-90
2021/10/25 08:01:27;;;;;;;39.83;19.05;;;;;;;17.37;43.03;98869.16;4985754;28;20147;-90
2021/10/25 08:09:45;;;;;;;22.73;14.40;;;;;;;17.50;41.63;98856.53;4986882;28;20125;-89
2021/10/25 08:12:14;;;;;;;20.92;12.55;;;;;;;17.68;40.73;98863.41;4967146;28;20029;-89
2021/10/25 08:15:08;;;;;;;24.05;13.07;;;;;;;17.04;42.92;98912.84;4963251;28;20026;-89
2021/10/25 08:17:47;;;;;;;26.60;13.80;;;;;;;17.55;42.68;98883.31;4985499;28;20469;-89
2021/10/25 08:20:25;;;;;;;31.25;12.82;;;;;;;18.22;41.10;98912.81;4976177;28;20033;-88
2021/10/25 08:22:50;;;;;;;21.40;12.52;;;;;;;17.78;41.66;98888.84;4971367;28;20054;-88
2021/10/25 08:25:16;;;;;;;24.17;11.63;;;;;;;17.66;41.71;98878.88;4963285;28;20476;-91
2021/10/25 08:27:42;;;;;;;19.73;10.73;;;;;;;16.70;42.78;98897.16;4964425;28;20056;-90
2021/10/25 08:30:21;;;;;;;19.42;11.55;;;;;;;17.60;41.59;98870.31;4969034;28;20394;-89
2021/10/25 08:33:07;;;;;;;23.15;14.50;;;;;;;18.50;40.45;98871.09;4967923;28;20018;-93
2021/10/25 08:35:51;;;;;;;23.70;13.32;;;;;;;18.38;40.61;98872.81;4967416;28;20038;-91
2021/10/25 08:41:13;;;;;;;33.92;21.00;;;;;;;19.40;39.29;98854.38;5000247;28;20116;-90
2021/10/25 08:43:49;;;;;;;35.35;19.02;;;;;;;19.19;39.35;98854.13;4982302;28;20076;-91
2021/10/25 08:46:24;;;;;;;30.65;17.20;;;;;;;18.56;39.72;98813.72;4982714;28;20053;-90
2021/10/25 08:49:21;;;;;;;;;;;;;;;;;;;;;
2021/10/25 08:52:24;;;;;;;;;;;;;;;;;;;;;
2021/10/25 08:54:51;;;;;;;26.00;11.93;;;;;;;16.77;45.02;98866.91;5014255;28;20108;-90
2021/10/25 08:57:24;;;;;;;19.45;12.75;;;;;;;16.16;46.40;98813.25;4989828;28;20088;-90
2021/10/25 08:59:55;;;;;;;23.55;13.70;;;;;;;17.72;44.35;98864.91;4978170;28;20428;-77
2021/10/25 09:02:21;;;;;;;25.33;10.68;;;;;;;19.28;41.23;98871.56;5011676;28;20112;-76
2021/10/25 09:05:07;;;;;;;21.10;10.90;;;;;;;20.24;38.65;98871.19;4994325;28;20504;-77
2021/10/25 09:07:47;;;;;;;12.40;7.80;;;;;;;20.45;37.90;98850.50;4980339;28;20137;-75
2021/10/25 09:10:12;;;;;;;22.83;11.40;;;;;;;20.71;37.20;98856.50;4975041;28;20022;-76
2021/10/25 09:12:38;;;;;;;19.48;10.48;;;;;;;20.85;36.03;98842.66;4989520;28;20033;-77
2021/10/25 09:15:04;;;;;;;16.02;8.10;;;;;;;20.95;34.23;98843.59;4993827;28;20041;-77
2021/10/25 09:17:39;;;;;;;14.75;9.25;;;;;;;21.66;33.45;98839.34;4994129;28;20591;-76
2021/10/25 09:20:07;;;;;;;14.02;7.60;;;;;;;22.29;32.43;98832.88;4977450;28;20029;-76
2021/10/25 09:22:33;;;;;;;21.55;10.10;;;;;;;22.86;32.25;98821.31;4994207;28;20025;-77
2021/10/25 09:24:59;;;;;;;14.10;9.05;;;;;;;23.57;30.00;98813.78;4997428;28;20030;-82
2021/10/25 09:27:34;;;;;;;24.30;10.02;;;;;;;23.11;30.45;98815.31;4975847;28;20117;-80
2021/10/25 09:30:15;;;;;;;11.80;6.72;;;;;;;22.48;30.79;98810.28;4963319;28;20374;-78
2021/10/25 09:32:42;;;;;;;10.00;5.88;;;;;;;21.66;31.70;98814.00;4971640;28;20022;-78
2021/10/25 09:35:17;;;;;;;8.45;4.72;;;;;;;21.45;31.88;98814.84;4981315;28;20076;-79
2021/10/25 09:37:54;;;;;;;10.57;5.53;;;;;;;20.16;32.57;98804.88;4992687;28;20498;-79
2021/10/25 09:49:03;;;;;;;7.05;3.78;;;;;;;21.55;31.36;98793.13;4937576;28;20062;-79
2021/10/25 09:51:28;;;;;;;5.97;3.27;;;;;;;23.35;27.98;98778.56;4936920;28;20027;-79
2021/10/25 09:53:58;;;;;;;17.67;6.90;;;;;;;22.30;28.75;98776.50;4944473;28;20041;-81
2021/10/25 09:56:34;;;;;;;7.78;3.78;;;;;;;22.28;28.84;98767.56;4952481;28;20446;-79
2021/10/25 09:59:09;;;;;;;8.00;3.85;;;;;;;21.80;28.82;98760.03;4940304;28;20034;-79
2021/10/25 10:01:36;;;;;;;11.35;5.28;;;;;;;24.00;27.28;98753.97;4968707;28;20038;-81
2021/10/25 10:04:05;;;;;;;14.10;4.63;;;;;;;25.28;25.72;98747.47;4956447;28;20030;-80
2021/10/25 10:06:31;;;;;;;13.93;4.30;;;;;;;26.00;24.85;98741.69;4955948;28;20042;-85
2021/10/25 10:08:58;;;;;;;4.78;3.65;;;;;;;25.04;24.96;98725.34;4957479;28;20073;-80
2021/10/25 10:11:25;;;;;;;7.28;3.58;;;;;;;25.07;25.01;98741.47;4975308;28;20037;-80
2021/10/25 10:13:51;;;;;;;19.42;5.63;;;;;;;25.78;24.51;98723.88;4966353;28;20520;-80
2021/10/25 10:16:17;;;;;;;8.90;4.00;;;;;;;27.14;23.38;98723.75;4955952;28;20027;-81
2021/10/25 10:18:47;;;;;;;8.80;3.30;;;;;;;26.54;23.41;98726.72;4939918;28;20041;-81
2021/10/25 10:21:13;;;;;;;5.43;3.20;;;;;;;25.87;23.51;98713.84;4963381;28;20037;-80
2021/10/25 10:23:43;;;;;;;6.68;3.10;;;;;;;25.18;24.25;98713.81;4972345;28;20049;-81
2021/10/25 10:26:15;;;;;;;8.88;3.25;;;;;;;26.76;22.55;98703.25;4960018;28;20104;-80
2021/10/25 10:28:44;;;;;;;9.32;3.30;;;;;;;26.75;23.03;98704.28;4963736;28;20022;-80
2021/10/25 10:31:14;;;;;;;6.95;4.07;;;;;;;26.73;22.81;98696.19;4967749;28;20422;-81
2021/10/25 10:33:46;;;;;;;7.13;4.47;;;;;;;27.64;21.73;98699.72;4939643;28;20046;-81
2021/10/25 10:36:12;;;;;;;;;;;;;;;26.64;22.67;98688.13;4951937;28;20035;-80
2021/10/25 10:39:04;;;;;;;11.95;3.30;;;;;;;25.70;23.14;98679.13;4969989;28;19913;-79
2021/10/25 10:41:36;;;;;;;7.57;3.03;;;;;;;26.04;22.45;98665.41;4983701;28;20049;-80
2021/10/25 10:44:10;;;;;;;4.95;3.00;;;;;;;24.88;23.63;98663.06;5011916;28;20038;-81
2021/10/25 10:46:58;;;;;;;6.57;3.35;;;;;;;26.28;22.11;98660.91;4966111;28;20089;-80
2021/10/25 10:49:42;;;;;;;8.10;3.13;;;;;;;28.19;20.94;98661.25;4967067;28;20026;-81
2021/10/25 10:57:40;;;;;;;18.10;2.90;;;;;;;29.01;19.58;98641.31;4987676;28;20295;-79
2021/10/25 11:00:06;;;;;;;20.80;3.85;;;;;;;29.15;19.44;98639.66;4960810;28;20109;-81
2021/10/25 11:02:32;;;;;;;3.55;2.83;;;;;;;28.42;19.62;98628.28;4974458;28;20037;-80
2021/10/25 11:05:08;;;;;;;8.13;3.20;;;;;;;28.92;19.54;98628.63;4978072;28;20033;-80
2021/10/25 11:07:40;;;;;;;5.00;3.05;;;;;;;28.81;19.29;98622.69;4976696;28;20030;-80
2021/10/25 11:10:09;;;;;;;5.35;2.75;;;;;;;28.02;19.40;98610.88;4972547;28;20091;-80
2021/10/25 11:12:41;;;;;;;5.78;3.03;;;;;;;28.82;18.72;98607.91;4976026;28;20049;-80
2021/10/25 11:15:09;;;;;;;7.25;3.78;;;;;;;29.08;19.08;98597.31;4981082;28;20033;-80
2021/10/25 11:17:36;;;;;;;10.85;3.75;;;;;;;27.76;19.87;98596.56;4975913;28;20404;-80
2021/10/25 11:20:02;;;;;;;3.72;2.58;;;;;;;26.35;20.87;98606.22;4958251;28;20571;-79
2021/10/25 11:22:29;;;;;;;6.72;3.92;;;;;;;28.04;18.97;98599.72;4964709;28;20032;-79
2021/10/25 11:24:55;;;;;;;8.07;3.08;;;;;;;28.27;19.12;98589.63;4992450;28;20096;-80
2021/10/25 11:27:32;;;;;;;13.60;6.60;;;;;;;28.24;19.40;98591.91;4977043;28;20045;-80
2021/10/25 11:30:12;;;;;;;7.95;3.30;;;;;;;28.66;19.71;98592.34;4958177;28;20112;-80
2021/10/25 11:32:39;;;;;;;11.15;3.40;;;;;;;28.70;19.87;98598.34;4975381;28;20526;-80
2021/10/25 11:35:06;;;;;;;6.05;3.30;;;;;;;27.74;20.13;98595.03;4973969;28;20045;-81
2021/10/25 11:37:33;;;;;;;8.68;2.90;;;;;;;27.62;19.98;98579.94;4965547;28;20018;-81
2021/10/25 11:42:36;;;;;;;4.63;2.90;;;;;;;26.49;20.51;98588.25;4977164;28;20046;-81
2021/10/25 11:45:10;;;;;;;9.85;3.55;;;;;;;26.25;20.53;98584.41;4973826;28;20433;-80
2021/10/25 11:47:44;;;;;;;6.60;3.47;;;;;;;27.41;19.81;98577.72;4965470;28;20046;-80
2021/10/25 11:50:15;;;;;;;7.40;3.30;;;;;;;27.78;19.41;98571.66;4962633;28;20039;-81
2021/10/25 11:52:46;;;;;;;6.78;3.65;;;;;;;27.21;19.66;98560.78;4993049;28;20105;-80
2021/10/25 11:55:15;;;;;;;5.50;3.10;;;;;;;26.60;20.82;98572.31;4973710;28;20038;-80
2021/10/25 11:58:01;;;;;;;7.30;2.88;;;;;;;25.84;21.31;98566.13;4973280;28;20097;-81
2021/10/25 12:00:30;;;;;;;7.50;3.30;;;;;;;25.19;21.73;98562.16;4966461;28;20033;-81
2021/10/25 12:03:09;;;;;;;4.68;3.00;;;;;;;24.24;22.96;98557.41;4992965;28;20045;-81
2021/10/25 12:05:35;;;;;;;9.77;5.07;;;;;;;25.72;22.25;98560.03;4969819;28;20505;-80
2021/10/25 12:08:01;;;;;;;17.67;9.68;;;;;;;26.49;21.25;98553.41;4969101;28;20045;-80
2021/10/25 12:10:28;;;;;;;8.38;5.80;;;;;;;27.12;20.81;98561.84;4957063;28;20039;-79
2021/10/25 12:12:59;;;;;;;6.25;4.20;;;;;;;26.76;20.27;98557.72;4961175;28;20517;-80
2021/10/25 12:15:26;;;;;;;15.77;7.33;;;;;;;26.95;21.14;98545.56;4965028;28;20046;-78
2021/10/25 12:17:59;;;;;;;10.68;6.70;;;;;;;26.98;20.80;98553.44;4964958;28;20516;-79
2021/10/25 12:20:27;;;;;;;9.80;3.38;;;;;;;26.41;21.03;98550.66;4957255;28;20038;-78
2021/10/25 12:23:15;;;;;;;6.40;2.92;;;;;;;26.30;21.39;98549.09;4992556;28;20048;-78
2021/10/25 12:25:41;;;;;;;7.25;3.30;;;;;;;26.57;21.18;98547.94;4987771;28;20037;-78
2021/10/25 12:28:11;;;;;;;7.15;3.78;;;;;;;26.37;21.49;98549.28;4974421;28;20433;-79
2021/10/25 12:30:37;;;;;;;7.40;3.60;;;;;;;25.18;22.71;98558.56;4981886;28;20044;-78
2021/10/25 12:33:03;;;;;;;6.38;3.83;;;;;;;25.82;22.22;98537.97;4975958;28;20029;-79
2021/10/25 12:35:38;;;;;;;6.25;3.08;;;;;;;25.04;23.23;98553.66;4971700;28;20064;-78
2021/10/25 12:38:16;;;;;;;4.65;2.75;;;;;;;25.30;21.97;98543.56;5001580;28;20399;-79
2021/10/25 12:40:45;;;;;;;9.50;2.88;;;;;;;25.46;22.06;98545.53;4967733;28;20474;-78
2021/10/25 12:43:11;;;;;;;5.60;3.15;;;;;;;25.88;22.13;98540.06;4995583;28;20041;-78
2021/10/25 12:45:40;;;;;;;6.85;3.60;;;;;;;26.30;21.82;98542.78;4964585;28;20038;-78
2021/10/25 12:48:11;;;;;;;7.32;4.28;;;;;;;25.13;22.68;98536.25;4984874;28;20037;-78
2021/10/25 12:50:41;;;;;;;9.27;4.57;;;;;;;26.12;22.19;98537.38;4969423;28;20030;-79
2021/10/25 12:53:09;;;;;;;7.25;3.92;;;;;;;26.04;22.01;98533.75;4980966;28;20489;-79
2021/10/25 12:55:36;;;;;;;6.53;3.78;;;;;;;25.64;22.13;98534.50;4987470;28;20084;-78
2021/10/25 12:58:09;;;;;;;8.32;3.00;;;;;;;24.73;22.26;98527.75;4972455;28;20070;-78
2021/10/25 13:00:35;;;;;;;6.75;2.35;;;;;;;23.77;23.31;98523.06;4955909;28;20034;-78
2021/10/25 13:03:06;;;;;;;6.65;2.50;;;;;;;24.36;23.05;98519.75;4955880;28;20033;-78
2021/10/25 13:05:34;;;;;;;4.80;2.20;;;;;;;23.61;23.58;98522.84;4966010;28;20501;-78
2021/10/25 13:08:02;;;;;;;5.75;2.90;;;;;;;24.47;22.91;98510.44;4983992;28;20289;-79
2021/10/25 13:10:33;;;;;;;5.97;3.78;;;;;;;25.16;22.58;98518.66;4982787;28;20037;-79
2021/10/25 13:13:00;;;;;;;6.25;2.88;;;;;;;23.21;24.10;98510.38;4974632;28;20049;-79
2021/10/25 13:15:26;;;;;;;5.97;2.60;;;;;;;23.86;23.79;98513.94;4983221;28;20098;-80
2021/10/25 13:17:53;;;;;;;9.88;4.30;;;;;;;24.71;23.77;98518.81;4991146;28;20428;-80
2021/10/25 13:20:21;;;;;;;5.15;3.22;;;;;;;24.40;23.29;98503.84;4981751;28;20370;-78
2021/10/25 13:22:49;;;;;;;6.97;2.95;;;;;;;22.42;24.89;98510.84;4962699;28;20042;-79
2021/10/25 13:25:15;;;;;;;3.83;2.90;;;;;;;23.09;24.23;98503.38;5008828;28;20473;-78
2021/10/25 13:27:42;;;;;;;17.17;3.60;;;;;;;22.79;24.84;98520.00;4992857;28;20454;-78
2021/10/25 13:30:08;;;;;;;5.97;2.83;;;;;;;23.43;24.60;98513.75;4986390;28;20052;-77
2021/10/25 13:32:34;;;;;;;6.35;3.10;;;;;;;23.89;23.89;98510.88;4977258;28;20049;-78
2021/10/25 13:35:00;;;;;;;18.02;4.15;;;;;;;24.69;22.98;98498.97;4977052;28;20043;-79
2021/10/25 13:37:26;;;;;;;9.52;3.22;;;;;;;22.68;24.87;98501.06;4972509;28;20053;-78
2021/10/25 13:39:52;;;;;;;9.05;3.45;;;;;;;21.16;26.80;98499.91;4977600;28;20061;-78
2021/10/25 13:42:17;;;;;;;5.35;3.00;;;;;;;21.97;25.88;98503.25;5010884;28;20046;-79
2021/10/25 13:44:44;;;;;;;5.70;3.25;;;;;;;22.05;25.77;98505.28;4977439;28;20026;-78
2021/10/25 13:47:10;;;;;;;5.95;2.83;;;;;;;22.17;25.40;98497.81;4986521;28;20029;-77
2021/10/25 13:49:36;;;;;;;11.07;4.10;;;;;;;23.26;24.46;98493.53;4990022;28;20080;-78
2021/10/25 13:52:02;;;;;;;8.82;3.50;;;;;;;23.63;24.05;98493.50;4976986;28;20041;-79
2021/10/25 13:54:28;;;;;;;4.03;2.90;;;;;;;23.67;24.36;98493.06;4993502;28;20037;-79
2021/10/25 13:56:54;;;;;;;9.13;3.40;;;;;;;23.02;24.92;98493.19;4977486;28;20057;-79
2021/10/25 13:59:20;;;;;;;5.60;3.90;;;;;;;23.24;25.21;98498.28;4993352;28;20142;-80
2021/10/25 14:01:45;;;;;;;8.32;5.38;;;;;;;23.91;24.37;98500.63;4977523;28;20397;-80
2021/10/25 14:04:16;;;;;;;8.90;5.10;;;;;;;24.40;24.18;98492.91;5011075;28;20073;-80
2021/10/25 14:06:41;;;;;;;23.00;5.68;;;;;;;23.98;24.33;98493.53;4977551;28;20477;-79
2021/10/25 14:09:07;;;;;;;9.63;4.90;;;;;;;23.71;24.80;98496.34;4978866;28;20030;-79
2021/10/25 14:11:39;;;;;;;14.52;4.78;;;;;;;23.22;24.99;98495.69;4959017;28;20553;-79
2021/10/25 14:16:35;;;;;;;13.25;4.50;;;;;;;23.49;24.99;98481.22;4992449;28;20030;-79
2021/10/25 14:19:03;;;;;;;10.25;5.00;;;;;;;22.45;26.15;98488.75;4977681;28;20034;-78
2021/10/25 14:21:34;;;;;;;13.45;6.97;;;;;;;22.05;26.49;98492.53;4976609;28;20129;-79
2021/10/25 14:24:00;;;;;;;12.82;5.80;;;;;;;22.64;26.46;98488.72;4965231;28;20105;-78
2021/10/25 14:26:25;;;;;;;13.68;4.85;;;;;;;22.63;26.21;98482.41;4973415;28;20030;-79
2021/10/25 14:28:51;;;;;;;13.55;4.57;;;;;;;22.34;27.07;98481.56;4963969;28;20030;-79
2021/10/25 14:31:17;;;;;;;19.55;7.68;;;;;;;22.07;26.87;98482.31;4967451;28;20117;-79
2021/10/25 14:33:42;;;;;;;7.18;3.88;;;;;;;22.04;26.93;98498.09;4957895;28;20030;-80
2021/10/25 14:36:09;;;;;;;10.07;2.95;;;;;;;20.88;28.01;98494.19;4986615;28;20080;-79
2021/10/25 14:41:17;;;;;;;7.07;2.72;;;;;;;20.46;29.23;98493.34;4974567;28;20425;-80
2021/10/25 14:43:47;;;;;;;17.70;4.28;;;;;;;19.91;30.22;98494.47;4975796;28;20029;-78
2021/10/25 14:46:20;;;;;;;7.00;3.53;;;;;;;18.89;31.08;98495.75;4990695;28;20026;-79
2021/10/25 14:54:04;;;;;;;7.55;3.75;;;;;;;17.01;35.42;98504.00;4985093;28;20070;-80
2021/10/25 14:56:30;;;;;;;13.52;6.45;;;;;;;16.58;35.44;98512.44;4979181;28;20026;-80
2021/10/25 14:58:56;;;;;;;34.10;20.05;;;;;;;16.22;37.61;98528.50;4969667;28;20060;-77
2021/10/25 15:01:21;;;;;;;44.97;24.23;;;;;;;15.69;38.94;98516.81;5011281;28;20026;-85
2021/10/25 15:03:47;;;;;;;26.60;15.00;;;;;;;15.39;40.48;98531.44;4968156;28;20040;-81
2021/10/25 15:06:13;;;;;;;45.33;22.50;;;;;;;14.98;41.10;98539.53;4962341;28;20122;-83
2021/10/25 15:08:38;;;;;;;23.98;13.05;;;;;;;14.48;43.22;98540.88;4968257;28;20035;-84
2021/10/25 15:11:04;;;;;;;32.50;16.02;;;;;;;14.07;45.07;98561.31;4964947;28;20026;-76
2021/10/25 15:13:30;;;;;;;43.10;20.38;;;;;;;13.82;45.98;98561.03;4977239;28;20034;-76
2021/10/25 15:15:55;;;;;;;59.20;27.05;;;;;;;13.47;47.30;98561.22;4977369;28;20441;-76
2021/10/25 15:18:21;;;;;;;44.88;24.05;;;;;;;13.25;46.86;98559.88;4967502;28;20072;-75
2021/10/25 15:20:48;;;;;;;43.65;21.95;;;;;;;13.07;48.31;98571.63;4977199;28;20038;-77
2021/10/25 15:23:13;;;;;;;160.27;71.15;;;;;;;12.83;49.79;98569.31;4978154;28;20470;-77